Time;durP1;ratioP1;P1;durP2;ratioP2;P2;SDS_P1;SDS_P2;PMS_P1;PMS_P2;Temp;Humidity;BMP_temperature;BMP_pressure;BME280_temperature;BME280_humidity;BME280_pressure;Samples;Min_cycle;Max_cycle;Signal;HPM_P1;HPM_P2
2021/01/29 00:00:42;;;;;;;24.33;14.52;;;7.10;99.20;;;6.87;84.15;98967.75;5022686;28;20140;-91
2021/01/29 00:03:13;;;;;;;22.40;12.90;;;7.10;99.20;;;6.91;84.29;98966.34;5007391;28;20046;-90
2021/01/29 00:05:42;;;;;;;27.55;14.73;;;7.10;99.20;;;6.93;83.90;98964.28;5023913;28;20046;-92
2021/01/29 00:08:10;;;;;;;24.85;14.30;;;7.10;99.20;;;6.89;84.23;98943.22;5007442;28;20770;-91
2021/01/29 00:10:38;;;;;;;26.35;14.75;;;7.10;99.20;;;6.90;84.17;98953.84;5007839;28;20041;-92
2021/01/29 00:13:06;;;;;;;25.35;13.88;;;7.10;99.10;;;6.98;84.17;98942.84;5007647;28;20091;-91
2021/01/29 00:15:34;;;;;;;22.05;13.75;;;7.10;99.20;;;6.98;84.14;98942.84;5007933;28;20499;-91
2021/01/29 00:18:03;;;;;;;23.30;13.77;;;7.10;99.30;;;6.97;84.36;98940.38;5008679;28;20419;-92
2021/01/29 00:20:30;;;;;;;20.55;13.07;;;7.10;99.30;;;6.92;84.21;98935.53;5023464;28;20069;-91
2021/01/29 00:22:58;;;;;;;22.50;13.13;;;7.10;99.40;;;6.91;84.50;98928.50;5007044;28;20034;-91
2021/01/29 00:25:29;;;;;;;22.98;13.60;;;7.10;99.40;;;6.93;84.54;98926.41;5005031;28;20135;-91
2021/01/29 00:27:56;;;;;;;26.35;14.45;;;7.10;99.40;;;6.91;84.40;98920.38;4984011;28;20121;-91
2021/01/29 00:30:27;;;;;;;23.17;13.35;;;7.10;99.40;;;6.93;84.54;98904.78;4983373;28;20043;-91
2021/01/29 00:32:54;;;;;;;23.88;13.52;;;7.10;99.50;;;7.00;84.50;98908.31;4966245;28;20050;-91
2021/01/29 00:35:26;;;;;;;23.58;14.52;;;7.10;99.40;;;7.02;84.08;98908.13;4967952;28;20141;-91
2021/01/29 00:37:54;;;;;;;21.45;13.35;;;7.10;99.60;;;6.98;83.97;98899.59;4983912;28;20241;-91
2021/01/29 00:40:21;;;;;;;21.08;12.82;;;7.20;99.50;;;6.94;84.94;98906.44;4968600;28;20408;-91
2021/01/29 00:42:49;;;;;;;27.00;13.55;;;7.20;99.50;;;6.98;84.59;98899.59;4968851;28;20166;-91
2021/01/29 00:45:21;;;;;;;20.27;12.77;;;7.10;99.60;;;7.03;84.78;98893.59;4968914;28;20057;-92
2021/01/29 00:47:48;;;;;;;24.42;13.32;;;7.10;99.70;;;7.02;84.20;98883.78;4968919;28;20802;-91
2021/01/29 00:50:16;;;;;;;22.77;12.77;;;7.10;99.70;;;7.02;84.68;98870.25;4984916;28;20069;-91
2021/01/29 00:52:44;;;;;;;22.40;12.73;;;7.20;99.80;;;6.98;84.57;98861.72;4969090;28;20584;-92
2021/01/29 00:55:13;;;;;;;19.67;12.25;;;7.20;99.70;;;7.02;84.41;98857.56;4970022;28;20146;-92
2021/01/29 00:57:51;;;;;;;22.00;12.73;;;7.20;99.80;;;7.08;84.16;98847.81;4968476;28;20109;-92
2021/01/29 01:00:41;;;;;;;25.85;13.43;;;7.20;99.90;;;7.12;84.23;98834.72;4950479;28;20075;-91
2021/01/29 01:03:16;;;;;;;27.63;14.65;;;7.30;99.90;;;7.16;84.93;98822.44;4984585;28;20523;-91
2021/01/29 01:05:43;;;;;;;27.40;12.90;;;7.30;99.90;;;7.21;84.87;98811.84;4968521;28;20114;-93
2021/01/29 01:08:16;;;;;;;31.23;13.40;;;7.40;99.90;;;7.22;84.40;98806.25;4968112;28;20142;-90
2021/01/29 01:11:06;;;;;;;31.70;15.00;;;7.40;99.60;;;7.24;84.68;98800.63;4972086;28;20050;-91
2021/01/29 01:13:53;;;;;;;26.73;13.45;;;7.50;99.60;;;7.29;84.63;98787.31;4970610;28;20065;-91
2021/01/29 01:16:44;;;;;;;28.05;13.85;;;7.60;99.70;;;7.32;84.81;98788.78;4979735;28;20054;-91
2021/01/29 01:19:31;;;;;;;31.15;13.07;;;7.70;99.80;;;7.35;84.57;98789.19;4971057;28;20050;-90
2021/01/29 01:22:04;;;;;;;28.00;13.07;;;7.70;99.20;;;7.37;84.73;98784.41;4986400;28;20057;-91
2021/01/29 01:25:13;;;;;;;30.23;13.13;;;7.70;99.20;;;7.40;84.98;98772.31;4976040;28;20082;-91
2021/01/29 01:27:40;;;;;;;28.45;12.35;;;7.70;99.20;;;7.41;84.42;98772.13;4986300;28;20154;-90
2021/01/29 01:30:35;;;;;;;29.85;13.23;;;7.80;99.00;;;7.44;84.92;98768.16;4970128;28;20066;-92
2021/01/29 01:33:08;;;;;;;33.85;13.27;;;7.80;98.60;;;7.46;85.58;98766.09;4986499;28;20105;-91
2021/01/29 01:35:55;;;;;;;28.10;13.68;;;7.80;98.50;;;7.47;84.54;98756.09;4971108;28;20222;-91
2021/01/29 01:38:32;;;;;;;24.20;12.57;;;7.80;98.50;;;7.50;84.67;98755.69;4986402;28;20043;-90
2021/01/29 01:41:02;;;;;;;29.05;12.50;;;7.90;98.60;;;7.52;84.61;98748.19;4971618;28;20050;-92
2021/01/29 01:43:38;;;;;;;23.13;12.45;;;7.90;98.40;;;7.52;84.84;98732.78;4971270;28;20051;-91
2021/01/29 01:46:32;;;;;;;34.42;13.40;;;7.90;98.40;;;7.56;85.34;98733.22;4975717;28;20054;-90
2021/01/29 01:49:38;;;;;;;29.35;13.55;;;8.00;98.80;;;7.59;84.90;98730.06;4971349;28;20047;-91
2021/01/29 01:52:09;;;;;;;29.48;13.88;;;8.00;98.60;;;7.61;84.97;98722.56;4969946;28;20073;-91
2021/01/29 01:55:01;;;;;;;25.77;12.25;;;8.00;98.30;;;7.60;85.28;98700.09;4971626;28;20129;-91
2021/01/29 01:57:35;;;;;;;30.52;14.25;;;8.10;98.50;;;7.64;85.20;98697.78;4970561;28;20046;-90
2021/01/29 02:00:26;;;;;;;41.15;15.32;;;8.10;98.60;;;7.64;85.85;98681.53;4971011;28;20043;-90
2021/01/29 02:03:19;;;;;;;28.98;13.02;;;8.10;98.90;;;7.66;85.23;98668.63;4967864;28;20785;-90
2021/01/29 02:06:11;;;;;;;33.90;13.32;;;8.20;98.70;;;7.69;85.66;98654.69;4986384;28;20202;-90
2021/01/29 02:08:50;;;;;;;28.52;13.10;;;8.20;98.40;;;7.71;85.44;98660.72;4986029;28;20059;-91
2021/01/29 02:11:36;;;;;;;24.27;12.27;;;8.20;98.10;;;7.73;85.54;98642.38;4970836;28;20065;-91
2021/01/29 02:14:17;;;;;;;38.92;15.25;;;8.20;97.90;;;7.76;85.76;98644.63;4985260;28;20061;-91
2021/01/29 02:17:16;;;;;;;26.33;11.93;;;8.30;98.70;;;7.77;85.37;98632.78;4970299;28;20051;-90
2021/01/29 02:21:08;;;;;;;39.17;14.82;;;8.30;98.60;;;7.78;85.29;98618.19;4970489;28;20106;-90
2021/01/29 02:24:40;;;;;;;;;;;8.30;98.60;;;7.80;85.67;98609.84;4951377;28;20051;-90
2021/01/29 02:27:52;;;;;;;23.42;11.35;;;8.30;97.90;;;7.80;85.59;98594.41;4969930;28;19930;-89
2021/01/29 02:31:21;;;;;;;20.88;11.32;;;8.30;97.90;;;7.81;86.09;98585.25;4969526;28;20054;-90
2021/01/29 02:34:39;;;;;;;24.40;11.57;;;8.30;97.90;;;7.81;86.10;98574.44;4985520;28;20086;-91
2021/01/29 02:37:50;;;;;;;24.65;11.98;;;8.40;97.70;;;7.83;85.89;98563.38;4985162;28;20051;-91
2021/01/29 02:40:42;;;;;;;27.45;11.70;;;8.40;98.20;;;7.83;86.03;98553.38;4969148;28;20423;-90
2021/01/29 02:43:39;;;;;;;26.77;11.73;;;8.40;98.20;;;7.86;85.91;98544.00;4985236;28;20137;-91
2021/01/29 02:46:31;;;;;;;27.25;11.32;;;8.40;98.00;;;7.88;85.55;98538.34;4970194;28;20568;-89
2021/01/29 02:49:34;;;;;;;30.17;12.63;;;8.40;98.10;;;7.89;85.81;98534.63;4969788;28;20059;-90
2021/01/29 02:52:30;;;;;;;30.00;11.67;;;8.50;98.10;;;7.91;85.84;98516.28;4969708;28;20058;-90
2021/01/29 02:55:45;;;;;;;36.80;13.05;;;8.50;98.40;;;7.94;87.46;98513.09;4987604;28;20297;-90
2021/01/29 02:58:31;;;;;;;38.13;12.95;;;8.60;99.90;;;7.95;86.98;98498.53;4971482;28;20168;-90
2021/01/29 03:01:40;;;;;;;26.50;11.13;;;8.60;99.90;;;7.95;87.71;98487.69;4948276;29;20063;-91
2021/01/29 03:04:32;;;;;;;30.35;10.88;;;8.70;99.90;;;7.98;87.62;98487.28;4969747;28;20113;-91
2021/01/29 03:07:10;;;;;;;26.77;11.32;;;8.70;99.90;;;8.02;87.45;98483.91;4969111;28;20054;-90
2021/01/29 03:09:42;;;;;;;27.48;11.50;;;8.70;99.90;;;8.03;87.75;98473.88;4985545;28;20050;-89
2021/01/29 03:12:37;;;;;;;25.67;10.30;;;8.70;99.90;;;8.04;88.47;98453.91;4970855;28;20061;-90
2021/01/29 03:15:28;;;;;;;21.67;9.15;;;8.80;99.90;;;8.06;88.32;98451.78;4970992;28;20185;-91
2021/01/29 03:18:53;;;;;;;20.15;8.50;;;8.80;99.90;;;8.09;88.15;98445.94;4958375;28;20125;-90
2021/01/29 03:21:57;;;;;;;25.90;9.13;;;8.80;99.90;;;8.13;88.21;98438.19;4957054;28;20134;-89
2021/01/29 03:25:15;;;;;;;24.40;9.82;;;8.90;99.90;;;8.13;88.10;98430.91;4968201;28;20530;-90
2021/01/29 03:28:14;;;;;;;29.30;9.18;;;8.90;99.90;;;8.19;88.45;98427.31;4968400;28;20065;-90
2021/01/29 03:31:57;;;;;;;19.55;8.30;;;8.90;99.90;;;8.16;88.61;98416.91;4968299;28;20074;-89
2021/01/29 03:35:06;;;;;;;16.83;7.38;;;8.90;99.90;;;8.19;88.31;98416.47;4968388;28;20153;-89
2021/01/29 03:38:04;;;;;;;14.13;6.35;;;8.90;99.90;;;8.17;89.98;98399.59;4982121;28;20073;-91
2021/01/29 03:40:59;;;;;;;11.50;6.20;;;9.00;99.90;;;8.17;89.77;98383.34;4979557;28;20217;-92
2021/01/29 03:44:02;;;;;;;10.00;5.05;;;9.10;99.90;;;8.18;90.21;98385.00;4978984;28;20050;-92
2021/01/29 03:47:37;;;;;;;10.55;4.80;;;9.00;99.90;;;8.20;89.68;98374.75;4977168;28;20116;-92
2021/01/29 03:51:02;;;;;;;7.45;4.10;;;9.10;99.90;;;8.23;89.58;98368.91;4976733;28;20110;-91
2021/01/29 03:53:59;;;;;;;9.48;3.67;;;9.10;99.90;;;8.25;90.67;98365.16;4976717;28;20058;-91
2021/01/29 03:57:03;;;;;;;4.82;2.70;;;9.10;99.90;;;8.23;90.89;98363.50;4977550;28;20579;-93
2021/01/29 04:00:56;;;;;;;8.10;3.45;;;9.20;99.90;;;8.28;90.21;98351.16;4977697;28;20172;-92
2021/01/29 04:03:48;;;;;;;5.82;3.03;;;9.10;99.90;;;8.30;89.37;98338.19;4973607;28;20122;-92
2021/01/29 04:10:32;;;;;;;7.40;3.53;;;9.10;99.80;;;8.37;89.70;98317.28;4974062;28;20518;-91
2021/01/29 04:13:25;;;;;;;7.50;3.60;;;9.10;99.90;;;8.35;90.23;98311.25;4974502;28;20065;-90
2021/01/29 04:16:03;;;;;;;7.95;3.10;;;9.20;99.90;;;8.38;89.37;98297.28;4988749;28;20060;-91
2021/01/29 04:18:36;;;;;;;4.65;2.65;;;9.10;99.40;;;8.37;88.86;98295.59;4972614;28;20194;-92
2021/01/29 04:22:05;;;;;;;5.63;2.88;;;9.10;99.20;;;8.37;89.38;98279.34;4974055;28;20531;-91
2021/01/29 04:25:10;;;;;;;5.57;3.00;;;9.20;99.70;;;8.38;89.03;98273.69;4973068;28;20444;-91
2021/01/29 04:27:41;;;;;;;6.07;3.05;;;9.10;99.20;;;8.40;89.11;98266.16;4987412;28;20089;-91
2021/01/29 04:34:58;;;;;;;5.35;3.00;;;9.20;98.30;;;8.43;88.26;98256.78;4952310;29;19964;-91
2021/01/29 04:38:18;;;;;;;6.53;3.30;;;9.20;99.60;;;8.43;89.68;98250.53;4951821;29;20067;-91
2021/01/29 04:41:00;;;;;;;6.25;2.95;;;9.20;99.90;;;8.41;89.38;98231.75;4951517;28;20059;-91
2021/01/29 04:44:37;;;;;;;5.95;3.47;;;9.20;99.40;;;8.41;89.52;98227.22;4936421;29;20057;-92
2021/01/29 04:47:22;;;;;;;5.75;2.70;;;9.20;99.50;;;8.43;89.07;98224.25;4939441;28;20109;-90
2021/01/29 04:50:26;;;;;;;8.48;3.90;;;9.30;99.30;;;8.48;89.28;98227.13;4939122;29;20062;-90
2021/01/29 04:53:59;;;;;;;6.65;3.42;;;9.30;99.90;;;8.48;89.63;98210.03;4939784;29;20162;-91
2021/01/29 04:57:13;;;;;;;8.07;3.55;;;9.30;99.90;;;8.51;89.10;98215.84;4896617;29;20104;-91
2021/01/29 05:00:15;;;;;;;8.50;3.90;;;9.30;99.60;;;8.51;90.02;98199.56;4888626;29;20132;-91
2021/01/29 05:03:49;;;;;;;5.78;3.67;;;9.30;99.80;;;8.51;89.21;98194.16;4946015;28;20051;-90
2021/01/29 05:07:12;;;;;;;7.43;3.70;;;9.30;99.50;;;8.53;88.98;98192.03;4940786;28;20062;-90
2021/01/29 05:10:29;;;;;;;8.50;3.75;;;9.30;99.80;;;8.52;89.50;98184.13;4958139;28;20066;-90
2021/01/29 05:13:56;;;;;;;9.27;4.13;;;9.40;99.90;;;8.57;89.32;98181.56;4989814;28;20058;-91
2021/01/29 05:16:54;;;;;;;8.25;4.32;;;9.30;99.40;;;8.57;89.69;98173.44;4936718;29;20103;-90
2021/01/29 05:20:00;;;;;;;12.43;5.07;;;9.40;99.90;;;8.58;89.38;98162.34;4973552;28;20054;-90
2021/01/29 05:22:50;;;;;;;10.25;4.63;;;9.30;99.20;;;8.59;88.97;98158.56;4975354;28;20369;-90
2021/01/29 05:26:06;;;;;;;7.85;4.20;;;9.40;99.80;;;8.61;88.94;98161.06;4974227;28;20046;-90
2021/01/29 05:29:16;;;;;;;10.38;4.70;;;9.40;99.40;;;8.61;89.21;98151.03;4973712;28;20512;-90
2021/01/29 05:32:22;;;;;;;10.02;4.40;;;9.40;99.80;;;8.61;89.22;98153.75;4989663;28;20047;-90
2021/01/29 05:35:10;;;;;;;10.05;4.82;;;9.40;99.90;;;8.63;89.07;98144.56;4975752;28;20419;-91
2021/01/29 05:38:15;;;;;;;7.53;3.72;;;9.40;99.20;;;8.63;89.08;98141.88;4975559;28;20059;-90
2021/01/29 05:41:15;;;;;;;10.10;4.72;;;9.40;99.50;;;8.63;89.47;98137.25;4985793;28;20055;-91
2021/01/29 05:44:49;;;;;;;11.18;5.57;;;9.40;99.30;;;8.67;89.94;98129.50;5007860;28;20110;-91
2021/01/29 05:48:00;;;;;;;14.85;5.95;;;9.40;99.60;;;8.67;89.10;98124.06;4934843;29;20062;-89
2021/01/29 05:51:11;;;;;;;10.07;5.15;;;9.40;99.60;;;8.70;89.60;98120.88;4986200;28;20049;-87
2021/01/29 05:54:26;;;;;;;13.48;6.70;;;9.40;99.90;;;8.71;89.35;98111.69;5001982;28;20140;-89
2021/01/29 05:57:34;;;;;;;9.90;5.65;;;9.40;99.70;;;8.70;88.77;98105.47;5009743;28;20526;-90
2021/01/29 06:00:21;;;;;;;10.63;5.45;;;9.40;99.10;;;8.70;89.75;98104.59;5021719;28;20160;-91
2021/01/29 06:03:25;;;;;;;10.65;5.10;;;9.40;99.80;;;8.71;89.67;98095.44;5010884;28;20046;-90
2021/01/29 06:06:31;;;;;;;16.67;6.18;;;9.40;98.80;;;8.71;88.93;98096.25;5010620;28;20537;-90
2021/01/29 06:09:18;;;;;;;12.68;6.07;;;9.40;98.80;;;8.73;89.17;98098.72;5008500;28;20045;-90
2021/01/29 06:11:57;;;;;;;15.20;6.43;;;9.50;99.60;;;8.74;89.00;98092.25;5024451;28;20045;-90
2021/01/29 06:15:23;;;;;;;15.00;6.43;;;9.50;99.90;;;8.73;89.44;98096.84;5009795;28;20104;-90
2021/01/29 06:18:16;;;;;;;11.52;5.97;;;9.50;99.90;;;8.75;89.02;98093.91;5006762;28;20053;-88
2021/01/29 06:21:26;;;;;;;9.32;5.47;;;9.50;99.90;;;8.74;88.79;98100.41;5023494;28;20050;-89
2021/01/29 06:24:42;;;;;;;12.90;6.28;;;9.50;98.90;;;8.75;89.18;98108.28;5008888;28;20081;-92
2021/01/29 06:27:47;;;;;;;10.38;5.10;;;9.50;99.50;;;8.74;89.25;98094.97;4968667;28;20721;-93
2021/01/29 06:30:45;;;;;;;11.05;5.60;;;9.50;99.10;;;8.74;89.68;98089.56;5023208;28;20057;-89
2021/01/29 06:33:57;;;;;;;7.07;4.13;;;9.50;99.90;;;8.74;90.04;98095.78;5009086;28;20046;-88
2021/01/29 06:36:46;;;;;;;7.88;4.65;;;9.50;99.90;;;8.78;89.60;98098.88;5003406;28;20061;-89
2021/01/29 06:39:33;;;;;;;5.32;3.22;;;9.50;99.90;;;8.75;91.32;98102.84;5023478;28;20060;-89
2021/01/29 06:42:34;;;;;;;6.00;3.20;;;9.60;99.90;;;8.75;91.83;98107.47;4977546;28;20061;-87
2021/01/29 06:45:43;;;;;;;5.60;2.92;;;9.60;99.90;;;8.75;91.84;98110.16;4962384;28;20649;-89
2021/01/29 06:48:57;;;;;;;5.82;3.20;;;9.70;99.90;;;8.76;91.87;98107.22;4967846;28;20047;-87
2021/01/29 06:52:18;;;;;;;4.68;2.80;;;9.70;99.90;;;8.78;91.55;98117.84;4925519;29;20047;-88
2021/01/29 06:55:36;;;;;;;5.85;3.30;;;9.70;99.90;;;8.77;92.48;98116.19;4913361;29;20911;-88
2021/01/29 06:58:36;;;;;;;5.53;3.20;;;9.70;99.90;;;8.75;92.88;98123.72;4987011;28;20061;-88
2021/01/29 07:01:32;;;;;;;5.35;3.53;;;9.70;99.90;;;8.73;92.91;98125.84;4946431;28;20055;-87
2021/01/29 07:04:59;;;;;;;8.48;3.80;;;9.70;99.90;;;8.73;93.67;98136.69;4986834;28;20074;-88
2021/01/29 07:07:48;;;;;;;9.30;3.83;;;9.70;99.90;;;8.77;93.19;98143.31;4978013;28;20054;-87
2021/01/29 07:10:48;;;;;;;7.05;4.13;;;9.80;99.90;;;8.69;93.38;98132.78;4969805;28;20093;-87
2021/01/29 07:13:37;;;;;;;6.18;4.03;;;9.80;99.90;;;8.70;93.72;98139.84;4984375;28;20069;-88
2021/01/29 07:16:55;;;;;;;7.95;4.35;;;9.80;99.90;;;8.70;93.81;98145.28;4967759;28;20051;-88
2021/01/29 07:19:43;;;;;;;7.57;3.92;;;9.80;99.90;;;8.74;93.40;98150.03;4984274;28;20062;-88
2021/01/29 07:22:42;;;;;;;8.15;4.15;;;9.80;99.90;;;8.77;93.18;98154.16;4967261;28;20062;-88
2021/01/29 07:25:21;;;;;;;6.55;4.10;;;9.80;99.90;;;8.76;93.70;98168.78;4967322;28;20156;-88
2021/01/29 07:28:00;;;;;;;6.53;4.05;;;9.80;99.90;;;8.76;93.55;98160.66;4966715;28;20085;-88
2021/01/29 07:31:06;;;;;;;8.40;3.85;;;9.80;99.90;;;8.73;93.59;98170.06;4968323;28;20097;-88
2021/01/29 07:33:40;;;;;;;7.68;3.83;;;9.80;99.90;;;8.76;93.11;98164.19;4980291;28;20089;-87
2021/01/29 07:36:41;;;;;;;9.23;4.47;;;9.80;99.90;;;8.79;93.22;98176.44;4983479;28;20055;-88
2021/01/29 07:39:51;;;;;;;13.48;6.15;;;9.80;99.90;;;8.80;93.57;98180.81;4966242;28;20823;-90
2021/01/29 07:42:47;;;;;;;14.02;6.90;;;9.80;99.90;;;8.77;93.68;98181.28;4967666;28;20740;-87
2021/01/29 07:45:46;;;;;;;8.65;4.90;;;9.80;99.90;;;8.80;93.57;98191.66;4967352;28;20059;-88
2021/01/29 07:49:11;;;;;;;8.77;4.30;;;9.80;99.90;;;8.82;93.22;98184.13;4967471;28;20452;-87
2021/01/29 07:51:51;;;;;;;9.02;4.35;;;9.80;99.90;;;8.83;93.47;98185.75;4967505;28;20058;-87
2021/01/29 07:54:49;;;;;;;7.88;4.20;;;9.90;99.90;;;8.85;93.56;98194.50;4967726;28;20397;-87
2021/01/29 07:58:13;;;;;;;9.05;4.72;;;9.90;99.90;;;8.86;93.09;98196.16;4967350;28;20054;-87
2021/01/29 08:01:25;;;;;;;8.88;4.57;;;9.90;99.90;;;8.84;93.56;98184.72;4937376;28;20425;-87
2021/01/29 08:04:32;;;;;;;7.97;5.28;;;9.90;99.90;;;8.86;93.49;98198.88;4967807;28;20059;-88
2021/01/29 08:07:14;;;;;;;8.35;5.65;;;9.90;99.90;;;8.87;93.89;98195.13;4967850;28;20047;-89
2021/01/29 08:09:48;;;;;;;10.27;6.00;;;9.90;99.90;;;8.85;93.72;98205.34;4984160;28;20538;-89
2021/01/29 08:12:20;;;;;;;10.85;6.75;;;9.90;99.90;;;8.86;93.82;98196.16;4966860;28;20050;-88
2021/01/29 08:15:30;;;;;;;9.73;6.57;;;10.00;99.90;;;8.87;94.16;98197.84;4982957;28;20055;-88
2021/01/29 08:18:37;;;;;;;10.60;6.93;;;10.00;99.90;;;8.92;93.50;98197.94;4966939;28;20047;-88
2021/01/29 08:21:45;;;;;;;9.95;6.60;;;9.90;99.90;;;8.90;93.71;98201.97;4967537;28;20527;-89
2021/01/29 08:24:39;;;;;;;11.77;6.82;;;9.90;99.90;;;8.94;93.81;98186.88;4971151;28;20061;-89
2021/01/29 08:27:42;;;;;;;9.10;5.97;;;9.90;99.90;;;8.94;93.60;98195.81;4970675;28;20050;-88
2021/01/29 08:31:06;;;;;;;;;;;9.90;99.90;;;8.95;93.53;98205.63;4973621;28;20092;-88
2021/01/29 08:34:59;;;;;;;9.73;6.00;;;9.90;99.90;;;8.95;93.60;98210.25;4972445;28;20017;-88
2021/01/29 08:37:46;;;;;;;9.70;5.78;;;10.00;99.90;;;8.94;93.95;98197.72;4975420;28;20173;-88
2021/01/29 08:40:29;;;;;;;9.90;6.18;;;10.00;99.90;;;8.93;94.40;98198.75;5003196;28;20061;-88
2021/01/29 08:43:30;;;;;;;12.50;6.05;;;10.00;99.90;;;8.91;94.65;98207.16;4991530;28;20488;-88
2021/01/29 08:46:36;;;;;;;15.30;6.53;;;10.00;99.90;;;8.94;94.61;98208.56;5008094;28;20054;-89
2021/01/29 08:49:22;;;;;;;15.18;6.43;;;10.00;99.90;;;8.94;94.46;98209.38;5009863;28;20051;-88
2021/01/29 08:51:59;;;;;;;17.55;6.85;;;10.00;99.90;;;8.97;93.71;98219.78;5008839;28;20061;-87
2021/01/29 08:54:53;;;;;;;17.75;6.47;;;10.00;99.90;;;8.99;94.01;98216.84;4993984;28;20058;-89
2021/01/29 08:57:58;;;;;;;17.15;5.90;;;10.00;99.90;;;8.96;94.52;98220.84;4987989;28;20512;-89
2021/01/29 09:00:29;;;;;;;20.80;7.03;;;10.00;99.90;;;8.92;94.65;98211.50;4981167;28;20050;-88
2021/01/29 09:03:07;;;;;;;;;;;10.00;99.90;;;8.94;94.71;98232.97;5007628;28;20802;-89
2021/01/29 09:05:37;;;;;;;24.67;6.57;;;10.00;99.90;;;8.96;94.43;98234.41;4989822;28;19926;-88
2021/01/29 09:08:07;;;;;;;19.17;6.50;;;10.00;99.90;;;9.00;94.15;98241.03;4990616;28;20169;-88
2021/01/29 09:11:05;;;;;;;19.35;7.20;;;10.00;99.90;;;9.00;94.62;98249.19;4991743;28;20046;-88
2021/01/29 09:13:35;;;;;;;21.55;6.60;;;10.00;99.90;;;8.99;94.63;98249.41;4990102;28;20050;-89
2021/01/29 09:16:11;;;;;;;21.00;6.53;;;10.10;99.90;;;9.00;95.01;98254.59;4990711;28;20061;-89
2021/01/29 09:18:44;;;;;;;20.10;6.38;;;10.10;99.90;;;9.00;94.53;98262.75;5006181;28;20425;-87
2021/01/29 09:21:25;;;;;;;21.55;7.00;;;10.10;99.90;;;9.02;94.70;98250.81;4990155;28;20243;-87
2021/01/29 09:24:03;;;;;;;16.02;6.35;;;10.10;99.90;;;8.99;94.73;98277.34;4989109;28;20077;-87
2021/01/29 09:26:38;;;;;;;16.27;6.45;;;10.00;99.90;;;9.03;94.39;98282.34;5005750;28;20587;-88
2021/01/29 09:29:19;;;;;;;23.00;6.88;;;10.00;99.90;;;9.04;94.27;98292.13;4991216;28;20042;-87
2021/01/29 09:31:56;;;;;;;24.60;6.60;;;10.00;99.90;;;9.02;94.36;98291.50;5004950;28;20058;-87
2021/01/29 09:34:30;;;;;;;23.08;7.05;;;10.10;99.90;;;9.03;94.42;98298.63;4989707;28;20393;-90
2021/01/29 09:37:03;;;;;;;19.75;7.00;;;10.00;99.90;;;9.04;94.25;98300.25;5005777;28;20058;-89
2021/01/29 09:39:39;;;;;;;17.95;6.15;;;10.10;99.90;;;9.05;94.10;98296.50;4989186;28;20055;-88
2021/01/29 09:42:10;;;;;;;17.25;7.22;;;10.10;99.90;;;9.05;94.00;98304.63;4989938;28;20046;-88
2021/01/29 09:44:43;;;;;;;;;;;10.10;99.90;;;9.05;94.27;98312.78;5006738;28;20125;-89
2021/01/29 09:47:21;;;;;;;22.55;7.45;;;10.10;99.90;;;9.02;93.90;98315.94;4987827;28;20374;-89
2021/01/29 09:49:51;;;;;;;21.60;6.78;;;10.00;99.90;;;9.04;93.79;98321.97;4988826;28;20047;-89
2021/01/29 09:52:24;;;;;;;21.27;7.63;;;10.00;99.90;;;9.03;93.77;98320.31;4986959;28;20508;-89
2021/01/29 09:55:03;;;;;;;23.42;8.23;;;10.00;99.90;;;9.02;93.91;98330.31;4988845;28;20114;-89
2021/01/29 09:57:35;;;;;;;24.60;6.97;;;10.00;99.90;;;9.03;94.10;98337.41;5003757;28;20539;-89
2021/01/29 10:00:13;;;;;;;27.77;8.23;;;10.00;99.90;;;9.02;93.79;98335.75;4989072;28;20096;-89
2021/01/29 10:02:53;;;;;;;28.67;8.68;;;10.00;99.90;;;9.05;93.60;98346.16;5003350;28;20065;-89
2021/01/29 10:05:36;;;;;;;29.98;7.75;;;10.00;99.90;;;9.06;93.38;98349.69;5002353;28;20054;-88
2021/01/29 10:08:16;;;;;;;28.25;8.07;;;10.00;99.90;;;9.05;93.42;98361.63;4968167;28;20051;-90
2021/01/29 10:10:59;;;;;;;29.45;8.13;;;10.00;99.90;;;9.02;93.42;98351.19;4969264;28;20074;-89
2021/01/29 10:13:55;;;;;;;30.45;8.48;;;10.00;99.90;;;8.99;93.28;98360.63;4967717;28;20067;-88
2021/01/29 10:16:48;;;;;;;28.63;8.27;;;10.00;99.90;;;8.99;93.24;98369.59;4969081;28;20042;-88
2021/01/29 10:19:30;;;;;;;31.27;8.57;;;10.00;99.90;;;9.03;93.66;98375.41;4970685;28;20471;-89
2021/01/29 10:22:48;;;;;;;31.40;8.98;;;10.00;99.90;;;9.00;93.41;98371.28;4968886;28;20767;-90
2021/01/29 10:25:28;;;;;;;28.58;8.05;;;10.00;99.90;;;9.04;92.80;98368.09;4976203;28;20057;-89
2021/01/29 10:28:00;;;;;;;28.92;8.38;;;10.00;99.90;;;9.09;92.67;98377.19;4967566;28;20042;-87
2021/01/29 10:30:36;;;;;;;38.55;9.10;;;10.00;99.90;;;9.07;92.99;98370.34;4989103;28;20542;-87
2021/01/29 10:33:11;;;;;;;36.47;9.32;;;10.00;99.90;;;9.05;92.90;98372.47;4981570;28;20125;-86
2021/01/29 10:35:45;;;;;;;31.55;8.30;;;10.00;99.90;;;9.05;92.87;98383.31;4995409;28;20177;-86
2021/01/29 10:38:21;;;;;;;30.63;7.65;;;10.00;99.90;;;9.07;92.75;98392.88;4998904;28;20050;-85
2021/01/29 10:41:04;;;;;;;29.08;8.05;;;10.00;99.90;;;9.09;92.59;98379.09;4967652;28;20046;-86
2021/01/29 10:43:43;;;;;;;35.90;8.35;;;10.00;99.90;;;9.10;93.32;98386.16;4982859;28;20059;-86
2021/01/29 10:46:58;;;;;;;36.03;7.93;;;10.10;99.90;;;9.08;93.64;98399.97;5010542;28;20109;-86
2021/01/29 10:49:38;;;;;;;37.53;8.10;;;10.10;99.90;;;9.11;93.95;98399.50;4963936;28;20133;-86
2021/01/29 10:52:18;;;;;;;35.95;8.68;;;10.20;99.90;;;9.13;94.52;98397.38;4966728;28;20050;-87
2021/01/29 10:54:46;;;;;;;36.45;8.82;;;10.20;99.90;;;9.18;94.34;98400.25;4976780;28;20050;-87
2021/01/29 10:57:25;;;;;;;41.00;8.32;;;10.30;99.90;;;9.18;94.29;98404.88;4987858;28;20042;-85
2021/01/29 10:59:57;;;;;;;36.92;8.88;;;10.30;99.90;;;9.21;94.30;98409.81;4984088;28;20126;-87
2021/01/29 11:02:39;;;;;;;29.45;8.48;;;10.30;99.90;;;9.22;93.94;98410.66;4986757;28;20034;-87
2021/01/29 11:05:09;;;;;;;;;;;10.30;99.90;;;9.22;93.54;98410.66;4980494;28;20054;-87
2021/01/29 11:07:40;;;;;;;28.95;8.15;;;10.40;99.90;;;9.24;93.63;98413.97;4985868;28;19926;-87
2021/01/29 11:10:37;;;;;;;29.85;7.78;;;10.40;99.90;;;9.21;92.67;98420.66;5002968;28;20046;-86
2021/01/29 11:13:38;;;;;;;27.77;7.60;;;10.20;99.90;;;9.24;92.63;98422.94;4999544;28;20059;-87
2021/01/29 11:16:09;;;;;;;28.67;8.23;;;10.30;99.80;;;9.25;92.74;98421.88;5002460;28;20459;-87
2021/01/29 11:18:37;;;;;;;38.78;9.07;;;10.40;99.80;;;9.26;92.78;98420.84;4985938;28;20042;-87
2021/01/29 11:21:21;;;;;;;36.40;8.35;;;10.40;99.60;;;9.25;92.25;98427.31;4979523;28;20698;-87
2021/01/29 11:24:05;;;;;;;43.63;8.77;;;10.30;99.60;;;9.27;92.57;98425.22;4986034;28;20046;-87
2021/01/29 11:26:39;;;;;;;40.17;9.30;;;10.40;99.60;;;9.28;92.66;98416.00;4985951;28;20054;-87
2021/01/29 11:29:14;;;;;;;32.85;7.82;;;10.40;99.60;;;9.30;92.04;98419.31;5002080;28;20762;-87
2021/01/29 11:31:46;;;;;;;34.63;8.75;;;10.40;99.30;;;9.29;92.28;98427.69;4987049;28;20416;-86
2021/01/29 11:34:24;;;;;;;34.03;9.80;;;10.40;99.30;;;9.34;92.51;98434.09;4986884;28;20038;-86
2021/01/29 11:37:05;;;;;;;36.72;7.38;;;10.40;99.20;;;9.32;92.31;98421.81;5001527;28;20058;-86
2021/01/29 11:39:37;;;;;;;;;;;10.40;99.10;;;9.32;92.06;98421.81;4983495;28;20046;-87
2021/01/29 11:42:16;;;;;;;37.75;8.02;;;10.50;99.20;;;9.32;92.34;98417.19;4987019;28;19972;-86
2021/01/29 11:44:54;;;;;;;34.88;8.52;;;10.50;99.40;;;9.35;92.09;98433.03;4973265;28;20050;-86
2021/01/29 11:47:34;;;;;;;30.92;8.45;;;10.50;99.40;;;9.37;92.03;98424.66;4967217;28;20511;-86
2021/01/29 11:50:09;;;;;;;25.83;7.38;;;10.60;99.30;;;9.37;91.73;98428.22;4980979;28;20055;-86
2021/01/29 11:52:41;;;;;;;30.42;8.02;;;10.60;98.70;;;9.39;91.38;98422.56;4984643;28;20054;-87
2021/01/29 11:55:18;;;;;;;;;;;10.60;98.30;;;9.44;91.15;98427.28;4985792;28;20046;-86
2021/01/29 11:57:56;;;;;;;30.58;6.68;;;10.60;98.30;;;9.44;91.15;98419.13;5001625;28;19957;-87
2021/01/29 12:00:47;;;;;;;23.60;6.57;;;10.60;98.20;;;9.45;90.78;98421.63;5002405;28;20054;-87
2021/01/29 12:03:29;;;;;;;24.83;6.53;;;10.60;98.20;;;9.45;90.37;98420.81;5002233;28;20053;-85
2021/01/29 12:06:05;;;;;;;;;;;10.60;97.80;;;9.48;90.69;98415.75;4969006;28;20054;-86
2021/01/29 12:08:56;;;;;;;29.85;7.35;;;10.60;97.80;;;9.45;90.81;98418.09;4969741;28;19926;-85
2021/01/29 12:11:32;;;;;;;34.67;7.20;;;10.60;97.80;;;9.44;90.66;98413.72;4970803;28;20053;-85
2021/01/29 12:14:14;;;;;;;32.92;7.82;;;10.60;97.60;;;9.44;90.67;98425.38;4992045;28;20101;-85